sensor_id;sensor_type;location;lat;lon;timestamp;temperature;humidity
15107;DHT22;7654;45.308;-75.096;2023-04-16T00:00:53;17.20;96.50
15107;DHT22;7654;45.308;-75.096;2023-04-16T00:03:24;17.10;96.90
15107;DHT22;7654;45.308;-75.096;2023-04-16T00:05:56;16.90;97.10
15107;DHT22;7654;45.308;-75.096;2023-04-16T00:08:27;16.80;97.60
15107;DHT22;7654;45.308;-75.096;2023-04-16T00:10:57;16.80;97.70
15107;DHT22;7654;45.308;-75.096;2023-04-16T00:13:28;16.60;98.00
15107;DHT22;7654;45.308;-75.096;2023-04-16T00:15:58;16.40;98.00
15107;DHT22;7654;45.308;-75.096;2023-04-16T00:18:29;16.30;98.60
15107;DHT22;7654;45.308;-75.096;2023-04-16T00:21:01;16.10;98.80
15107;DHT22;7654;45.308;-75.096;2023-04-16T00:23:32;16.00;99.20
15107;DHT22;7654;45.308;-75.096;2023-04-16T00:26:02;15.80;99.60
15107;DHT22;7654;45.308;-75.096;2023-04-16T00:28:33;15.80;99.70
15107;DHT22;7654;45.308;-75.096;2023-04-16T00:31:03;15.70;99.90
15107;DHT22;7654;45.308;-75.096;2023-04-16T00:33:34;15.70;99.90
15107;DHT22;7654;45.308;-75.096;2023-04-16T00:36:06;15.70;99.90
15107;DHT22;7654;45.308;-75.096;2023-04-16T00:38:37;15.80;99.90
15107;DHT22;7654;45.308;-75.096;2023-04-16T00:41:08;15.80;99.90
15107;DHT22;7654;45.308;-75.096;2023-04-16T00:43:38;15.70;99.90
15107;DHT22;7654;45.308;-75.096;2023-04-16T00:46:09;15.60;99.90
15107;DHT22;7654;45.308;-75.096;2023-04-16T00:48:40;15.50;99.90
15107;DHT22;7654;45.308;-75.096;2023-04-16T00:51:14;15.40;99.90
15107;DHT22;7654;45.308;-75.096;2023-04-16T00:53:45;15.30;99.90
15107;DHT22;7654;45.308;-75.096;2023-04-16T00:56:16;15.30;99.90
15107;DHT22;7654;45.308;-75.096;2023-04-16T00:58:47;15.30;99.90
15107;DHT22;7654;45.308;-75.096;2023-04-16T01:01:18;15.30;99.90
15107;DHT22;7654;45.308;-75.096;2023-04-16T01:03:49;15.30;99.90
15107;DHT22;7654;45.308;-75.096;2023-04-16T01:06:22;15.30;99.90
15107;DHT22;7654;45.308;-75.096;2023-04-16T01:08:53;15.40;99.90
15107;DHT22;7654;45.308;-75.096;2023-04-16T01:11:24;15.40;99.90
15107;DHT22;7654;45.308;-75.096;2023-04-16T01:13:54;15.30;99.90
15107;DHT22;7654;45.308;-75.096;2023-04-16T01:16:25;15.30;99.90
15107;DHT22;7654;45.308;-75.096;2023-04-16T01:18:56;15.30;99.90
15107;DHT22;7654;45.308;-75.096;2023-04-16T01:21:28;15.10;99.90
15107;DHT22;7654;45.308;-75.096;2023-04-16T01:24:02;15.10;99.90
15107;DHT22;7654;45.308;-75.096;2023-04-16T01:26:33;15.10;99.90
15107;DHT22;7654;45.308;-75.096;2023-04-16T01:29:03;14.90;99.90
15107;DHT22;7654;45.308;-75.096;2023-04-16T01:31:34;14.80;99.90
15107;DHT22;7654;45.308;-75.096;2023-04-16T01:34:05;14.70;99.90
15107;DHT22;7654;45.308;-75.096;2023-04-16T01:36:37;14.50;99.90
15107;DHT22;7654;45.308;-75.096;2023-04-16T01:39:07;14.40;99.90
15107;DHT22;7654;45.308;-75.096;2023-04-16T01:41:38;14.30;99.90
15107;DHT22;7654;45.308;-75.096;2023-04-16T01:44:09;14.20;99.90
15107;DHT22;7654;45.308;-75.096;2023-04-16T01:46:42;14.20;99.90
15107;DHT22;7654;45.308;-75.096;2023-04-16T01:49:13;14.20;99.90
15107;DHT22;7654;45.308;-75.096;2023-04-16T01:51:46;14.10;99.90
15107;DHT22;7654;45.308;-75.096;2023-04-16T01:54:17;14.00;99.90
15107;DHT22;7654;45.308;-75.096;2023-04-16T01:56:47;13.90;99.90
15107;DHT22;7654;45.308;-75.096;2023-04-16T01:59:18;13.80;99.90
15107;DHT22;7654;45.308;-75.096;2023-04-16T02:01:48;13.70;99.90
15107;DHT22;7654;45.308;-75.096;2023-04-16T02:04:19;13.60;99.90
15107;DHT22;7654;45.308;-75.096;2023-04-16T02:06:52;13.40;99.90
15107;DHT22;7654;45.308;-75.096;2023-04-16T02:09:22;13.30;99.90
15107;DHT22;7654;45.308;-75.096;2023-04-16T02:11:54;13.20;99.90
15107;DHT22;7654;45.308;-75.096;2023-04-16T02:14:24;13.00;99.90
15107;DHT22;7654;45.308;-75.096;2023-04-16T02:16:54;13.10;99.90
15107;DHT22;7654;45.308;-75.096;2023-04-16T02:19:25;13.00;99.90
15107;DHT22;7654;45.308;-75.096;2023-04-16T02:21:58;13.00;99.90
15107;DHT22;7654;45.308;-75.096;2023-04-16T02:24:29;12.90;99.90
15107;DHT22;7654;45.308;-75.096;2023-04-16T02:27:00;12.80;99.90
15107;DHT22;7654;45.308;-75.096;2023-04-16T02:29:31;12.80;99.90
15107;DHT22;7654;45.308;-75.096;2023-04-16T02:32:01;12.70;99.90
15107;DHT22;7654;45.308;-75.096;2023-04-16T02:34:31;12.70;99.90
15107;DHT22;7654;45.308;-75.096;2023-04-16T02:37:04;12.60;99.90
15107;DHT22;7654;45.308;-75.096;2023-04-16T02:39:35;12.60;99.90
15107;DHT22;7654;45.308;-75.096;2023-04-16T02:42:05;12.60;99.90
15107;DHT22;7654;45.308;-75.096;2023-04-16T02:44:36;12.70;99.90
15107;DHT22;7654;45.308;-75.096;2023-04-16T02:47:06;12.80;99.90
15107;DHT22;7654;45.308;-75.096;2023-04-16T02:49:37;12.90;99.90
15107;DHT22;7654;45.308;-75.096;2023-04-16T02:52:09;12.70;99.90
15107;DHT22;7654;45.308;-75.096;2023-04-16T02:54:42;12.80;99.90
15107;DHT22;7654;45.308;-75.096;2023-04-16T02:57:12;12.70;99.90
15107;DHT22;7654;45.308;-75.096;2023-04-16T02:59:43;12.60;99.90
15107;DHT22;7654;45.308;-75.096;2023-04-16T03:02:13;12.50;99.90
15107;DHT22;7654;45.308;-75.096;2023-04-16T03:04:43;12.60;99.90
15107;DHT22;7654;45.308;-75.096;2023-04-16T03:07:15;12.60;99.90
15107;DHT22;7654;45.308;-75.096;2023-04-16T03:09:46;12.60;99.90
15107;DHT22;7654;45.308;-75.096;2023-04-16T03:12:16;12.70;99.90
15107;DHT22;7654;45.308;-75.096;2023-04-16T03:14:47;12.70;99.90
15107;DHT22;7654;45.308;-75.096;2023-04-16T03:17:19;12.70;99.90
15107;DHT22;7654;45.308;-75.096;2023-04-16T03:19:49;12.70;99.90
15107;DHT22;7654;45.308;-75.096;2023-04-16T03:22:21;12.70;99.90
15107;DHT22;7654;45.308;-75.096;2023-04-16T03:24:52;12.60;99.90
15107;DHT22;7654;45.308;-75.096;2023-04-16T03:27:22;12.60;99.90
15107;DHT22;7654;45.308;-75.096;2023-04-16T03:29:53;12.60;99.90
15107;DHT22;7654;45.308;-75.096;2023-04-16T03:32:23;12.50;99.90
15107;DHT22;7654;45.308;-75.096;2023-04-16T03:34:53;12.40;99.90
15107;DHT22;7654;45.308;-75.096;2023-04-16T03:37:25;12.40;99.90
15107;DHT22;7654;45.308;-75.096;2023-04-16T03:39:56;12.30;99.90
15107;DHT22;7654;45.308;-75.096;2023-04-16T03:42:26;12.20;99.90
15107;DHT22;7654;45.308;-75.096;2023-04-16T03:44:57;12.20;99.90
15107;DHT22;7654;45.308;-75.096;2023-04-16T03:47:28;12.20;99.90
15107;DHT22;7654;45.308;-75.096;2023-04-16T03:49:59;12.10;99.90
15107;DHT22;7654;45.308;-75.096;2023-04-16T03:52:31;12.10;99.90
15107;DHT22;7654;45.308;-75.096;2023-04-16T03:55:01;12.20;99.90
15107;DHT22;7654;45.308;-75.096;2023-04-16T03:57:32;12.20;99.90
15107;DHT22;7654;45.308;-75.096;2023-04-16T04:00:03;12.20;99.90
15107;DHT22;7654;45.308;-75.096;2023-04-16T04:02:34;12.40;99.90
15107;DHT22;7654;45.308;-75.096;2023-04-16T04:05:05;12.40;99.90
15107;DHT22;7654;45.308;-75.096;2023-04-16T04:07:37;12.40;99.90
15107;DHT22;7654;45.308;-75.096;2023-04-16T04:10:08;12.40;99.90
15107;DHT22;7654;45.308;-75.096;2023-04-16T04:12:39;12.30;99.90
15107;DHT22;7654;45.308;-75.096;2023-04-16T04:15:10;12.30;99.90
15107;DHT22;7654;45.308;-75.096;2023-04-16T04:17:40;12.30;99.90
15107;DHT22;7654;45.308;-75.096;2023-04-16T04:20:11;12.20;99.90
15107;DHT22;7654;45.308;-75.096;2023-04-16T04:22:44;12.30;99.90
15107;DHT22;7654;45.308;-75.096;2023-04-16T04:25:15;12.30;99.90
15107;DHT22;7654;45.308;-75.096;2023-04-16T04:27:45;12.30;99.90
15107;DHT22;7654;45.308;-75.096;2023-04-16T04:30:16;12.20;99.90
15107;DHT22;7654;45.308;-75.096;2023-04-16T04:32:46;12.20;99.90
15107;DHT22;7654;45.308;-75.096;2023-04-16T04:35:17;12.10;99.90
15107;DHT22;7654;45.308;-75.096;2023-04-16T04:37:49;12.10;99.90
15107;DHT22;7654;45.308;-75.096;2023-04-16T04:40:20;12.10;99.90
15107;DHT22;7654;45.308;-75.096;2023-04-16T04:42:51;12.00;99.90
15107;DHT22;7654;45.308;-75.096;2023-04-16T04:45:21;12.00;99.90
15107;DHT22;7654;45.308;-75.096;2023-04-16T04:47:52;12.00;99.90
15107;DHT22;7654;45.308;-75.096;2023-04-16T04:50:23;11.90;99.90
15107;DHT22;7654;45.308;-75.096;2023-04-16T04:52:55;12.00;99.90
15107;DHT22;7654;45.308;-75.096;2023-04-16T04:55:26;12.00;99.90
15107;DHT22;7654;45.308;-75.096;2023-04-16T04:57:56;11.90;99.90
15107;DHT22;7654;45.308;-75.096;2023-04-16T05:00:26;11.90;99.90
15107;DHT22;7654;45.308;-75.096;2023-04-16T05:02:57;11.80;99.90
15107;DHT22;7654;45.308;-75.096;2023-04-16T05:05:27;11.80;99.90
15107;DHT22;7654;45.308;-75.096;2023-04-16T05:07:59;11.70;99.90
15107;DHT22;7654;45.308;-75.096;2023-04-16T05:10:30;11.60;99.90
15107;DHT22;7654;45.308;-75.096;2023-04-16T05:13:01;11.60;99.90
15107;DHT22;7654;45.308;-75.096;2023-04-16T05:15:31;11.50;99.90
15107;DHT22;7654;45.308;-75.096;2023-04-16T05:18:01;11.50;99.90
15107;DHT22;7654;45.308;-75.096;2023-04-16T05:20:31;11.40;99.90
15107;DHT22;7654;45.308;-75.096;2023-04-16T05:23:03;11.50;99.90
15107;DHT22;7654;45.308;-75.096;2023-04-16T05:25:34;11.40;99.90
15107;DHT22;7654;45.308;-75.096;2023-04-16T05:28:05;11.40;99.90
15107;DHT22;7654;45.308;-75.096;2023-04-16T05:30:35;11.40;99.90
15107;DHT22;7654;45.308;-75.096;2023-04-16T05:33:05;11.30;99.90
15107;DHT22;7654;45.308;-75.096;2023-04-16T05:35:36;11.30;99.90
15107;DHT22;7654;45.308;-75.096;2023-04-16T05:38:07;11.40;99.90
15107;DHT22;7654;45.308;-75.096;2023-04-16T05:40:38;11.30;99.90
15107;DHT22;7654;45.308;-75.096;2023-04-16T05:43:08;11.30;99.90
15107;DHT22;7654;45.308;-75.096;2023-04-16T05:45:38;11.30;99.90
15107;DHT22;7654;45.308;-75.096;2023-04-16T05:48:09;11.10;99.90
15107;DHT22;7654;45.308;-75.096;2023-04-16T05:50:41;11.10;99.90
15107;DHT22;7654;45.308;-75.096;2023-04-16T05:53:13;11.00;99.90
15107;DHT22;7654;45.308;-75.096;2023-04-16T05:55:43;11.00;99.90
15107;DHT22;7654;45.308;-75.096;2023-04-16T05:58:14;10.90;99.90
15107;DHT22;7654;45.308;-75.096;2023-04-16T06:00:44;10.90;99.90
15107;DHT22;7654;45.308;-75.096;2023-04-16T06:03:15;10.90;99.90
15107;DHT22;7654;45.308;-75.096;2023-04-16T06:05:45;10.90;99.90
15107;DHT22;7654;45.308;-75.096;2023-04-16T06:08:17;10.80;99.90
15107;DHT22;7654;45.308;-75.096;2023-04-16T06:10:47;10.80;99.90
15107;DHT22;7654;45.308;-75.096;2023-04-16T06:13:18;10.70;99.90
15107;DHT22;7654;45.308;-75.096;2023-04-16T06:15:48;10.70;99.90
15107;DHT22;7654;45.308;-75.096;2023-04-16T06:18:19;10.60;99.90
15107;DHT22;7654;45.308;-75.096;2023-04-16T06:20:49;10.50;99.90
15107;DHT22;7654;45.308;-75.096;2023-04-16T06:23:21;10.50;99.90
15107;DHT22;7654;45.308;-75.096;2023-04-16T06:25:51;10.40;99.90
15107;DHT22;7654;45.308;-75.096;2023-04-16T06:28:22;10.30;99.90
15107;DHT22;7654;45.308;-75.096;2023-04-16T06:30:52;10.20;99.90
15107;DHT22;7654;45.308;-75.096;2023-04-16T06:33:23;10.10;99.90
15107;DHT22;7654;45.308;-75.096;2023-04-16T06:35:53;10.00;99.90
15107;DHT22;7654;45.308;-75.096;2023-04-16T06:38:25;9.90;99.90
15107;DHT22;7654;45.308;-75.096;2023-04-16T06:40:56;9.90;99.90
15107;DHT22;7654;45.308;-75.096;2023-04-16T06:43:27;9.90;99.90
15107;DHT22;7654;45.308;-75.096;2023-04-16T06:45:59;9.90;99.90
15107;DHT22;7654;45.308;-75.096;2023-04-16T06:48:29;9.90;99.90
15107;DHT22;7654;45.308;-75.096;2023-04-16T06:51:00;9.80;99.90
15107;DHT22;7654;45.308;-75.096;2023-04-16T06:53:33;9.80;99.90
15107;DHT22;7654;45.308;-75.096;2023-04-16T06:56:05;9.80;99.90
15107;DHT22;7654;45.308;-75.096;2023-04-16T06:58:35;9.90;99.90
15107;DHT22;7654;45.308;-75.096;2023-04-16T07:01:06;10.00;99.90
15107;DHT22;7654;45.308;-75.096;2023-04-16T07:03:37;9.90;99.90
15107;DHT22;7654;45.308;-75.096;2023-04-16T07:06:08;9.80;99.90
15107;DHT22;7654;45.308;-75.096;2023-04-16T07:08:39;9.70;99.90
15107;DHT22;7654;45.308;-75.096;2023-04-16T07:11:10;9.60;99.90
15107;DHT22;7654;45.308;-75.096;2023-04-16T07:13:40;9.50;99.90
15107;DHT22;7654;45.308;-75.096;2023-04-16T07:16:10;9.40;99.90
15107;DHT22;7654;45.308;-75.096;2023-04-16T07:18:41;9.30;99.90
15107;DHT22;7654;45.308;-75.096;2023-04-16T07:21:11;9.20;99.90
15107;DHT22;7654;45.308;-75.096;2023-04-16T07:23:43;9.20;99.90
15107;DHT22;7654;45.308;-75.096;2023-04-16T07:26:13;9.00;99.90
15107;DHT22;7654;45.308;-75.096;2023-04-16T07:28:44;8.90;99.90
15107;DHT22;7654;45.308;-75.096;2023-04-16T07:31:14;8.80;99.90
15107;DHT22;7654;45.308;-75.096;2023-04-16T07:33:44;8.70;99.90
15107;DHT22;7654;45.308;-75.096;2023-04-16T07:36:15;8.80;99.90
15107;DHT22;7654;45.308;-75.096;2023-04-16T07:38:47;8.90;99.90
15107;DHT22;7654;45.308;-75.096;2023-04-16T07:41:17;8.70;99.90
15107;DHT22;7654;45.308;-75.096;2023-04-16T07:43:48;8.70;99.90
15107;DHT22;7654;45.308;-75.096;2023-04-16T07:46:18;8.70;99.90
15107;DHT22;7654;45.308;-75.096;2023-04-16T07:48:49;8.80;99.90
15107;DHT22;7654;45.308;-75.096;2023-04-16T07:51:19;8.80;99.90
15107;DHT22;7654;45.308;-75.096;2023-04-16T07:53:51;8.70;99.90
15107;DHT22;7654;45.308;-75.096;2023-04-16T07:56:21;8.70;99.90
15107;DHT22;7654;45.308;-75.096;2023-04-16T07:58:51;8.70;99.90
15107;DHT22;7654;45.308;-75.096;2023-04-16T08:01:22;8.70;99.90
15107;DHT22;7654;45.308;-75.096;2023-04-16T08:03:52;8.60;99.90
15107;DHT22;7654;45.308;-75.096;2023-04-16T08:06:23;8.50;99.90
15107;DHT22;7654;45.308;-75.096;2023-04-16T08:08:55;8.50;99.90
15107;DHT22;7654;45.308;-75.096;2023-04-16T08:11:26;8.50;99.90
15107;DHT22;7654;45.308;-75.096;2023-04-16T08:13:57;8.40;99.90
15107;DHT22;7654;45.308;-75.096;2023-04-16T08:16:27;8.40;99.90
15107;DHT22;7654;45.308;-75.096;2023-04-16T08:18:58;8.30;99.90
15107;DHT22;7654;45.308;-75.096;2023-04-16T08:21:28;8.20;99.90
15107;DHT22;7654;45.308;-75.096;2023-04-16T08:24:01;8.10;99.90
15107;DHT22;7654;45.308;-75.096;2023-04-16T08:26:31;8.10;99.90
15107;DHT22;7654;45.308;-75.096;2023-04-16T08:29:01;8.00;99.90
15107;DHT22;7654;45.308;-75.096;2023-04-16T08:31:32;8.00;99.90
15107;DHT22;7654;45.308;-75.096;2023-04-16T08:34:03;7.90;99.90
15107;DHT22;7654;45.308;-75.096;2023-04-16T08:36:33;7.80;99.90
15107;DHT22;7654;45.308;-75.096;2023-04-16T08:39:05;7.70;99.90
15107;DHT22;7654;45.308;-75.096;2023-04-16T08:41:38;7.70;99.90
15107;DHT22;7654;45.308;-75.096;2023-04-16T08:44:15;7.60;99.90
15107;DHT22;7654;45.308;-75.096;2023-04-16T08:46:52;7.50;99.90
15107;DHT22;7654;45.308;-75.096;2023-04-16T08:49:25;7.40;99.90
15107;DHT22;7654;45.308;-75.096;2023-04-16T08:51:56;7.40;99.90
15107;DHT22;7654;45.308;-75.096;2023-04-16T08:54:37;7.40;99.90
15107;DHT22;7654;45.308;-75.096;2023-04-16T08:57:09;7.40;99.90
15107;DHT22;7654;45.308;-75.096;2023-04-16T08:59:42;7.40;99.90
15107;DHT22;7654;45.308;-75.096;2023-04-16T09:02:15;7.40;99.90
15107;DHT22;7654;45.308;-75.096;2023-04-16T09:04:46;7.30;99.90
15107;DHT22;7654;45.308;-75.096;2023-04-16T09:07:18;7.40;99.90
15107;DHT22;7654;45.308;-75.096;2023-04-16T09:09:51;7.30;99.90
15107;DHT22;7654;45.308;-75.096;2023-04-16T09:12:23;7.30;99.90
15107;DHT22;7654;45.308;-75.096;2023-04-16T09:14:55;7.20;99.90
15107;DHT22;7654;45.308;-75.096;2023-04-16T09:17:27;7.20;99.90
15107;DHT22;7654;45.308;-75.096;2023-04-16T09:19:57;7.30;99.90
15107;DHT22;7654;45.308;-75.096;2023-04-16T09:22:28;7.30;99.90
15107;DHT22;7654;45.308;-75.096;2023-04-16T09:25:00;7.30;99.90
15107;DHT22;7654;45.308;-75.096;2023-04-16T09:27:30;7.30;99.90
15107;DHT22;7654;45.308;-75.096;2023-04-16T09:30:01;7.20;99.90
15107;DHT22;7654;45.308;-75.096;2023-04-16T09:32:32;7.20;99.90
15107;DHT22;7654;45.308;-75.096;2023-04-16T09:35:04;7.10;99.90
15107;DHT22;7654;45.308;-75.096;2023-04-16T09:37:35;7.10;99.90
15107;DHT22;7654;45.308;-75.096;2023-04-16T09:40:08;7.10;99.90
15107;DHT22;7654;45.308;-75.096;2023-04-16T09:42:38;7.00;99.90
15107;DHT22;7654;45.308;-75.096;2023-04-16T09:45:09;6.90;99.90
15107;DHT22;7654;45.308;-75.096;2023-04-16T09:47:41;6.90;99.90
15107;DHT22;7654;45.308;-75.096;2023-04-16T09:50:15;6.90;99.90
15107;DHT22;7654;45.308;-75.096;2023-04-16T09:52:47;6.80;99.90
15107;DHT22;7654;45.308;-75.096;2023-04-16T09:55:26;6.70;99.90
15107;DHT22;7654;45.308;-75.096;2023-04-16T09:58:00;6.60;99.90
15107;DHT22;7654;45.308;-75.096;2023-04-16T10:00:31;6.50;99.90
15107;DHT22;7654;45.308;-75.096;2023-04-16T10:03:04;6.40;99.90
15107;DHT22;7654;45.308;-75.096;2023-04-16T10:05:35;6.40;99.90
15107;DHT22;7654;45.308;-75.096;2023-04-16T10:08:11;6.40;99.90
15107;DHT22;7654;45.308;-75.096;2023-04-16T10:10:44;6.30;99.90
15107;DHT22;7654;45.308;-75.096;2023-04-16T10:13:14;6.30;99.90
15107;DHT22;7654;45.308;-75.096;2023-04-16T10:15:47;6.30;99.90
15107;DHT22;7654;45.308;-75.096;2023-04-16T10:18:20;6.30;99.90
15107;DHT22;7654;45.308;-75.096;2023-04-16T10:20:51;6.30;99.90
15107;DHT22;7654;45.308;-75.096;2023-04-16T10:23:22;6.30;99.90
15107;DHT22;7654;45.308;-75.096;2023-04-16T10:25:54;6.50;99.90
15107;DHT22;7654;45.308;-75.096;2023-04-16T10:28:25;6.60;99.90
15107;DHT22;7654;45.308;-75.096;2023-04-16T10:30:57;6.80;99.90
15107;DHT22;7654;45.308;-75.096;2023-04-16T10:33:29;6.80;99.90
15107;DHT22;7654;45.308;-75.096;2023-04-16T10:36:10;7.00;99.90
15107;DHT22;7654;45.308;-75.096;2023-04-16T10:38:43;7.00;99.90
15107;DHT22;7654;45.308;-75.096;2023-04-16T10:41:16;7.10;99.90
15107;DHT22;7654;45.308;-75.096;2023-04-16T10:43:47;7.20;99.90
15107;DHT22;7654;45.308;-75.096;2023-04-16T10:46:19;7.20;99.90
15107;DHT22;7654;45.308;-75.096;2023-04-16T10:48:52;7.30;99.90
15107;DHT22;7654;45.308;-75.096;2023-04-16T10:51:27;7.40;99.90
15107;DHT22;7654;45.308;-75.096;2023-04-16T10:54:03;7.40;99.90
15107;DHT22;7654;45.308;-75.096;2023-04-16T10:56:50;7.50;99.90
15107;DHT22;7654;45.308;-75.096;2023-04-16T10:59:21;7.50;99.90
15107;DHT22;7654;45.308;-75.096;2023-04-16T11:01:53;7.60;99.90
15107;DHT22;7654;45.308;-75.096;2023-04-16T11:04:29;7.60;99.90
15107;DHT22;7654;45.308;-75.096;2023-04-16T11:07:13;7.60;99.90
15107;DHT22;7654;45.308;-75.096;2023-04-16T11:09:51;7.50;99.90
15107;DHT22;7654;45.308;-75.096;2023-04-16T11:12:24;7.60;99.90
15107;DHT22;7654;45.308;-75.096;2023-04-16T11:14:59;7.70;99.90
15107;DHT22;7654;45.308;-75.096;2023-04-16T11:17:31;7.60;99.90
15107;DHT22;7654;45.308;-75.096;2023-04-16T11:20:02;7.70;99.90
15107;DHT22;7654;45.308;-75.096;2023-04-16T11:22:47;7.90;99.90
15107;DHT22;7654;45.308;-75.096;2023-04-16T11:25:21;8.00;99.90
15107;DHT22;7654;45.308;-75.096;2023-04-16T11:27:53;8.00;99.90
15107;DHT22;7654;45.308;-75.096;2023-04-16T11:30:28;8.10;99.90
15107;DHT22;7654;45.308;-75.096;2023-04-16T11:33:01;8.10;99.90
15107;DHT22;7654;45.308;-75.096;2023-04-16T11:35:31;8.20;99.90
15107;DHT22;7654;45.308;-75.096;2023-04-16T11:38:01;8.30;99.90
15107;DHT22;7654;45.308;-75.096;2023-04-16T11:40:33;8.40;99.90
15107;DHT22;7654;45.308;-75.096;2023-04-16T11:43:13;8.50;99.90
15107;DHT22;7654;45.308;-75.096;2023-04-16T11:45:55;8.70;99.90
15107;DHT22;7654;45.308;-75.096;2023-04-16T11:51:11;8.80;99.90
15107;DHT22;7654;45.308;-75.096;2023-04-16T11:53:49;8.80;99.90
15107;DHT22;7654;45.308;-75.096;2023-04-16T11:56:26;9.00;99.90
15107;DHT22;7654;45.308;-75.096;2023-04-16T11:59:09;9.10;99.90
15107;DHT22;7654;45.308;-75.096;2023-04-16T12:01:41;9.30;99.90
15107;DHT22;7654;45.308;-75.096;2023-04-16T12:04:13;9.50;99.90
15107;DHT22;7654;45.308;-75.096;2023-04-16T12:07:06;9.60;99.90
15107;DHT22;7654;45.308;-75.096;2023-04-16T12:09:37;9.70;99.90
15107;DHT22;7654;45.308;-75.096;2023-04-16T12:12:26;9.80;99.90
15107;DHT22;7654;45.308;-75.096;2023-04-16T12:15:01;9.90;99.90
15107;DHT22;7654;45.308;-75.096;2023-04-16T12:17:32;10.00;99.90
15107;DHT22;7654;45.308;-75.096;2023-04-16T12:20:07;10.10;99.90
15107;DHT22;7654;45.308;-75.096;2023-04-16T12:22:39;10.20;99.90
15107;DHT22;7654;45.308;-75.096;2023-04-16T12:25:12;10.30;99.90
15107;DHT22;7654;45.308;-75.096;2023-04-16T12:27:44;10.30;99.90
15107;DHT22;7654;45.308;-75.096;2023-04-16T12:30:22;10.30;99.90
15107;DHT22;7654;45.308;-75.096;2023-04-16T12:35:40;10.70;99.90
15107;DHT22;7654;45.308;-75.096;2023-04-16T12:38:10;10.80;99.90
15107;DHT22;7654;45.308;-75.096;2023-04-16T12:40:43;10.90;99.90
15107;DHT22;7654;45.308;-75.096;2023-04-16T12:43:13;11.00;99.90
15107;DHT22;7654;45.308;-75.096;2023-04-16T12:46:13;11.10;99.90
15107;DHT22;7654;45.308;-75.096;2023-04-16T12:48:43;11.20;99.90
15107;DHT22;7654;45.308;-75.096;2023-04-16T12:51:13;11.30;99.90
15107;DHT22;7654;45.308;-75.096;2023-04-16T12:53:44;11.40;99.90
15107;DHT22;7654;45.308;-75.096;2023-04-16T12:56:14;11.50;99.90
15107;DHT22;7654;45.308;-75.096;2023-04-16T12:58:45;11.60;99.90
15107;DHT22;7654;45.308;-75.096;2023-04-16T13:01:20;11.80;99.90
15107;DHT22;7654;45.308;-75.096;2023-04-16T13:03:51;11.80;99.90
15107;DHT22;7654;45.308;-75.096;2023-04-16T13:06:22;11.90;99.90
15107;DHT22;7654;45.308;-75.096;2023-04-16T13:08:53;12.00;99.90
15107;DHT22;7654;45.308;-75.096;2023-04-16T13:11:23;12.20;99.90
15107;DHT22;7654;45.308;-75.096;2023-04-16T13:13:54;12.30;99.90
15107;DHT22;7654;45.308;-75.096;2023-04-16T13:16:26;12.40;99.90
15107;DHT22;7654;45.308;-75.096;2023-04-16T13:18:56;12.50;99.90
15107;DHT22;7654;45.308;-75.096;2023-04-16T13:21:26;12.50;99.90
15107;DHT22;7654;45.308;-75.096;2023-04-16T13:23:57;12.60;99.90
15107;DHT22;7654;45.308;-75.096;2023-04-16T13:26:28;12.70;99.90
15107;DHT22;7654;45.308;-75.096;2023-04-16T13:28:58;12.80;99.90
15107;DHT22;7654;45.308;-75.096;2023-04-16T13:31:30;12.90;99.90
15107;DHT22;7654;45.308;-75.096;2023-04-16T13:34:01;13.10;99.90
15107;DHT22;7654;45.308;-75.096;2023-04-16T13:36:32;13.10;99.90
15107;DHT22;7654;45.308;-75.096;2023-04-16T13:39:02;13.20;99.90
15107;DHT22;7654;45.308;-75.096;2023-04-16T13:41:38;13.40;99.90
15107;DHT22;7654;45.308;-75.096;2023-04-16T13:44:08;13.50;99.90
15107;DHT22;7654;45.308;-75.096;2023-04-16T13:46:40;13.70;99.90
15107;DHT22;7654;45.308;-75.096;2023-04-16T13:49:14;13.70;99.90
15107;DHT22;7654;45.308;-75.096;2023-04-16T13:51:45;13.70;99.90
15107;DHT22;7654;45.308;-75.096;2023-04-16T13:54:15;13.80;99.90
15107;DHT22;7654;45.308;-75.096;2023-04-16T13:56:46;13.90;99.90
15107;DHT22;7654;45.308;-75.096;2023-04-16T13:59:16;14.00;99.90
15107;DHT22;7654;45.308;-75.096;2023-04-16T14:01:49;14.20;99.90
15107;DHT22;7654;45.308;-75.096;2023-04-16T14:04:20;14.20;99.90
15107;DHT22;7654;45.308;-75.096;2023-04-16T14:06:50;14.30;99.90
15107;DHT22;7654;45.308;-75.096;2023-04-16T14:09:21;14.40;99.90
15107;DHT22;7654;45.308;-75.096;2023-04-16T14:11:51;14.50;99.90
15107;DHT22;7654;45.308;-75.096;2023-04-16T14:14:21;14.60;99.90
15107;DHT22;7654;45.308;-75.096;2023-04-16T14:16:56;14.60;99.90
15107;DHT22;7654;45.308;-75.096;2023-04-16T14:19:26;14.70;99.90
15107;DHT22;7654;45.308;-75.096;2023-04-16T14:21:57;14.80;99.90
15107;DHT22;7654;45.308;-75.096;2023-04-16T14:24:27;15.00;99.90
15107;DHT22;7654;45.308;-75.096;2023-04-16T14:26:58;15.10;99.90
15107;DHT22;7654;45.308;-75.096;2023-04-16T14:29:28;15.30;99.90
15107;DHT22;7654;45.308;-75.096;2023-04-16T14:32:01;15.50;99.90
15107;DHT22;7654;45.308;-75.096;2023-04-16T14:34:31;15.50;99.90
15107;DHT22;7654;45.308;-75.096;2023-04-16T14:37:02;15.60;99.90
15107;DHT22;7654;45.308;-75.096;2023-04-16T14:39:33;15.60;99.90
15107;DHT22;7654;45.308;-75.096;2023-04-16T14:42:03;15.80;99.90
15107;DHT22;7654;45.308;-75.096;2023-04-16T14:44:34;15.80;99.90
15107;DHT22;7654;45.308;-75.096;2023-04-16T14:47:06;15.90;99.90
15107;DHT22;7654;45.308;-75.096;2023-04-16T14:49:37;16.00;99.90
15107;DHT22;7654;45.308;-75.096;2023-04-16T14:52:07;16.10;99.90
15107;DHT22;7654;45.308;-75.096;2023-04-16T14:54:37;16.30;99.90
15107;DHT22;7654;45.308;-75.096;2023-04-16T14:57:08;16.50;99.90
15107;DHT22;7654;45.308;-75.096;2023-04-16T14:59:38;16.50;99.90
15107;DHT22;7654;45.308;-75.096;2023-04-16T15:02:10;16.60;99.90
15107;DHT22;7654;45.308;-75.096;2023-04-16T15:04:40;16.70;99.90
15107;DHT22;7654;45.308;-75.096;2023-04-16T15:07:11;16.80;99.90
15107;DHT22;7654;45.308;-75.096;2023-04-16T15:09:42;16.90;99.90
15107;DHT22;7654;45.308;-75.096;2023-04-16T15:12:12;17.00;99.90
15107;DHT22;7654;45.308;-75.096;2023-04-16T15:14:45;17.20;99.90
15107;DHT22;7654;45.308;-75.096;2023-04-16T15:17:17;17.30;99.90
15107;DHT22;7654;45.308;-75.096;2023-04-16T15:19:48;17.40;99.90
15107;DHT22;7654;45.308;-75.096;2023-04-16T15:22:19;17.50;99.90
15107;DHT22;7654;45.308;-75.096;2023-04-16T15:24:50;17.60;99.90
15107;DHT22;7654;45.308;-75.096;2023-04-16T15:27:21;17.60;99.90
15107;DHT22;7654;45.308;-75.096;2023-04-16T15:29:52;17.70;99.90
15107;DHT22;7654;45.308;-75.096;2023-04-16T15:32:24;17.80;99.90
15107;DHT22;7654;45.308;-75.096;2023-04-16T15:34:55;18.00;99.90
15107;DHT22;7654;45.308;-75.096;2023-04-16T15:37:25;18.10;99.90
15107;DHT22;7654;45.308;-75.096;2023-04-16T15:39:55;18.20;99.90
15107;DHT22;7654;45.308;-75.096;2023-04-16T15:42:26;18.30;99.90
15107;DHT22;7654;45.308;-75.096;2023-04-16T15:44:57;18.40;99.90
15107;DHT22;7654;45.308;-75.096;2023-04-16T15:47:30;18.60;99.90
15107;DHT22;7654;45.308;-75.096;2023-04-16T15:50:00;18.80;99.90
15107;DHT22;7654;45.308;-75.096;2023-04-16T15:52:31;18.90;99.80